Time;durP1;ratioP1;P1;durP2;ratioP2;P2;SDS_P1;SDS_P2;PMS_P1;PMS_P2;Temp;Humidity;BMP_temperature;BMP_pressure;BME280_temperature;BME280_humidity;BME280_pressure;Samples;Min_cycle;Max_cycle;Signal;HPM_P1;HPM_P2
2023/11/20 00:01:51;;;;;;;2.95;1.95;;;;;;;;;;5071480;28;20417;-58
2023/11/20 00:04:18;;;;;;;5.80;1.55;;;;;;;;;;5071540;28;20035;-58
2023/11/20 00:06:45;;;;;;;3.13;2.08;;;;;;;;;;5070539;28;20021;-58
2023/11/20 00:09:12;;;;;;;2.33;1.45;;;;;;;;;;5066619;28;20029;-58
2023/11/20 00:11:39;;;;;;;12.90;1.88;;;;;;;;;;5066773;28;20044;-58
2023/11/20 00:14:06;;;;;;;5.03;2.20;;;;;;;;;;5066589;28;20021;-57
2023/11/20 00:16:33;;;;;;;4.28;2.15;;;;;;;;;;5065934;28;20060;-57
2023/11/20 00:19:02;;;;;;;4.15;2.10;;;;;;;;;;5071193;28;20028;-57
2023/11/20 00:21:29;;;;;;;9.30;1.45;;;;;;;;;;5071773;28;20033;-57
2023/11/20 00:23:55;;;;;;;2.83;1.83;;;;;;;;;;5071746;28;20033;-57
2023/11/20 00:26:22;;;;;;;6.13;2.40;;;;;;;;;;5071300;28;20146;-58
2023/11/20 00:28:49;;;;;;;3.45;1.90;;;;;;;;;;5071029;28;20043;-57
2023/11/20 00:31:16;;;;;;;7.53;1.63;;;;;;;;;;5066744;28;20040;-58
2023/11/20 00:33:43;;;;;;;2.70;1.67;;;;;;;;;;5066622;28;20031;-58
2023/11/20 00:36:10;;;;;;;2.10;1.33;;;;;;;;;;5066547;28;20379;-57
2023/11/20 00:38:37;;;;;;;11.13;1.83;;;;;;;;;;5066004;28;20028;-57
2023/11/20 00:41:04;;;;;;;3.77;1.93;;;;;;;;;;5070374;28;20097;-57
2023/11/20 00:43:34;;;;;;;6.47;2.23;;;;;;;;;;5071339;28;20027;-57
2023/11/20 00:46:01;;;;;;;8.73;2.30;;;;;;;;;;5071615;28;20116;-57
2023/11/20 00:48:28;;;;;;;3.30;2.00;;;;;;;;;;5071414;28;20043;-57
2023/11/20 00:50:55;;;;;;;17.07;1.80;;;;;;;;;;5073681;28;20029;-57
2023/11/20 00:53:21;;;;;;;4.60;1.93;;;;;;;;;;5071204;28;20047;-57
2023/11/20 00:55:48;;;;;;;6.40;1.80;;;;;;;;;;5069697;28;20025;-58
2023/11/20 00:58:15;;;;;;;4.80;2.47;;;;;;;;;;5070152;28;20043;-57
2023/11/20 01:00:41;;;;;;;4.00;2.00;;;;;;;;;;5070107;28;20479;-58
2023/11/20 01:03:08;;;;;;;3.77;1.40;;;;;;;;;;5073051;28;20048;-57
2023/11/20 01:05:35;;;;;;;9.00;1.47;;;;;;;;;;5074908;28;20078;-58
2023/11/20 01:08:02;;;;;;;5.63;3.07;;;;;;;;;;5074686;28;20392;-58
2023/11/20 01:10:29;;;;;;;4.53;2.27;;;;;;;;;;5074977;28;20074;-58
2023/11/20 01:12:55;;;;;;;2.63;1.63;;;;;;;;;;5075058;28;20021;-57
2023/11/20 01:15:22;;;;;;;1.90;1.27;;;;;;;;;;5071335;28;20037;-57
2023/11/20 01:17:49;;;;;;;6.07;2.30;;;;;;;;;;5069853;28;20074;-57
2023/11/20 01:20:16;;;;;;;2.60;1.83;;;;;;;;;;5069793;28;20472;-57
2023/11/20 01:22:42;;;;;;;4.13;2.17;;;;;;;;;;5069532;28;20027;-57
2023/11/20 01:25:10;;;;;;;3.30;1.67;;;;;;;;;;5072153;28;20102;-57
2023/11/20 01:27:37;;;;;;;3.97;2.37;;;;;;;;;;5074389;28;20056;-57
2023/11/20 01:30:04;;;;;;;2.27;1.47;;;;;;;;;;5074416;28;20033;-57
2023/11/20 01:32:31;;;;;;;14.80;1.97;;;;;;;;;;5074498;28;20488;-57
2023/11/20 01:34:57;;;;;;;6.87;2.20;;;;;;;;;;5074415;28;20107;-57
2023/11/20 01:37:24;;;;;;;4.03;1.93;;;;;;;;;;5072097;28;20459;-57
2023/11/20 01:39:51;;;;;;;8.53;1.73;;;;;;;;;;5069456;28;20021;-57
2023/11/20 01:42:19;;;;;;;6.27;1.90;;;;;;;;;;5069167;28;20032;-57
2023/11/20 01:44:46;;;;;;;3.17;1.53;;;;;;;;;;5068919;28;20479;-58
2023/11/20 01:47:13;;;;;;;4.17;1.80;;;;;;;;;;5070195;28;20036;-57
2023/11/20 01:49:41;;;;;;;2.43;1.37;;;;;;;;;;5074333;28;20023;-58
2023/11/20 01:52:09;;;;;;;9.33;1.30;;;;;;;;;;5073860;28;20754;-57
2023/11/20 01:54:36;;;;;;;11.67;1.43;;;;;;;;;;5073895;28;20041;-57
2023/11/20 01:57:04;;;;;;;3.50;1.90;;;;;;;;;;5074152;28;20024;-57
2023/11/20 01:59:31;;;;;;;2.07;1.33;;;;;;;;;;5072796;28;20048;-57
2023/11/20 02:01:58;;;;;;;1.53;1.10;;;;;;;;;;5069002;28;20112;-57
2023/11/20 02:04:27;;;;;;;2.57;1.43;;;;;;;;;;5069136;28;20041;-58
2023/11/20 02:06:53;;;;;;;1.83;1.13;;;;;;;;;;5068563;28;20533;-57
2023/11/20 02:09:20;;;;;;;2.47;1.03;;;;;;;;;;5068701;28;20029;-57
2023/11/20 02:11:47;;;;;;;23.80;1.90;;;;;;;;;;5074062;28;20491;-57
2023/11/20 02:14:14;;;;;;;4.47;1.73;;;;;;;;;;5073622;28;20025;-57
2023/11/20 02:16:41;;;;;;;4.93;1.57;;;;;;;;;;5073896;28;20020;-57
2023/11/20 02:19:14;;;;;;;2.23;1.00;;;;;;;;;;5073720;28;20063;-57
2023/11/20 02:21:42;;;;;;;4.47;1.20;;;;;;;;;;5073449;28;20372;-57
2023/11/20 02:24:09;;;;;;;18.67;1.57;;;;;;;;;;5068084;28;20055;-57
2023/11/20 02:26:51;;;;;;;21.37;1.97;;;;;;;;;;5068041;28;20040;-57
2023/11/20 02:29:21;;;;;;;2.50;0.97;;;;;;;;;;5068385;28;20032;-57
2023/11/20 02:31:47;;;;;;;1.70;1.13;;;;;;;;;;5068622;28;20017;-57
2023/11/20 02:34:16;;;;;;;1.57;0.77;;;;;;;;;;5073562;28;20027;-57
2023/11/20 02:36:43;;;;;;;1.63;0.87;;;;;;;;;;5073005;28;20072;-57
2023/11/20 02:39:12;;;;;;;1.37;0.83;;;;;;;;;;5072390;28;20044;-57
2023/11/20 02:41:39;;;;;;;9.33;1.23;;;;;;;;;;5071978;28;20474;-57
2023/11/20 02:44:06;;;;;;;2.20;1.00;;;;;;;;;;5072465;28;20071;-57
2023/11/20 02:46:33;;;;;;;1.07;0.70;;;;;;;;;;5067785;28;20029;-57
2023/11/20 02:49:00;;;;;;;2.80;0.93;;;;;;;;;;5068084;28;20480;-57
2023/11/20 02:51:30;;;;;;;1.97;1.27;;;;;;;;;;5068231;28;20057;-57
2023/11/20 02:53:57;;;;;;;2.03;1.10;;;;;;;;;;5067940;28;20048;-57
2023/11/20 02:56:26;;;;;;;2.23;1.20;;;;;;;;;;5073143;28;20021;-57
2023/11/20 02:58:53;;;;;;;2.03;1.20;;;;;;;;;;5072394;28;20039;-57
2023/11/20 03:01:20;;;;;;;1.90;0.90;;;;;;;;;;5072749;28;20043;-57
2023/11/20 03:03:46;;;;;;;2.27;1.40;;;;;;;;;;5072727;28;20031;-57
2023/11/20 03:06:13;;;;;;;1.80;1.07;;;;;;;;;;5071882;28;20103;-57
2023/11/20 03:08:40;;;;;;;2.40;1.33;;;;;;;;;;5066906;28;20067;-57
2023/11/20 03:11:07;;;;;;;1.93;1.13;;;;;;;;;;5067500;28;20028;-57
2023/11/20 03:13:34;;;;;;;1.90;1.17;;;;;;;;;;5066965;28;20029;-58
2023/11/20 03:16:01;;;;;;;2.23;1.50;;;;;;;;;;5067298;28;20057;-58
2023/11/20 03:18:27;;;;;;;1.43;0.93;;;;;;;;;;5071319;28;20044;-58
2023/11/20 03:20:54;;;;;;;1.40;1.00;;;;;;;;;;5064977;28;20036;-57
2023/11/20 03:23:21;;;;;;;2.37;1.20;;;;;;;;;;5072345;28;20051;-57
2023/11/20 03:25:47;;;;;;;1.80;0.97;;;;;;;;;;5072038;28;20020;-57
2023/11/20 03:28:15;;;;;;;2.00;1.27;;;;;;;;;;5071989;28;20033;-57
2023/11/20 03:30:42;;;;;;;5.57;1.10;;;;;;;;;;5068129;28;20086;-57
2023/11/20 03:33:09;;;;;;;1.57;1.20;;;;;;;;;;5066639;28;20124;-57
2023/11/20 03:35:36;;;;;;;1.53;0.90;;;;;;;;;;5067108;28;20086;-57
2023/11/20 03:38:03;;;;;;;8.60;1.33;;;;;;;;;;5067285;28;20021;-57
2023/11/20 03:40:30;;;;;;;1.13;0.70;;;;;;;;;;5070228;28;20660;-57
2023/11/20 03:42:56;;;;;;;1.63;0.97;;;;;;;;;;5072373;28;20033;-57
2023/11/20 03:45:25;;;;;;;2.00;1.23;;;;;;;;;;5071995;28;20025;-57
2023/11/20 03:47:52;;;;;;;1.00;0.67;;;;;;;;;;5071483;28;20033;-57
2023/11/20 03:50:19;;;;;;;18.00;0.97;;;;;;;;;;5072098;28;20398;-57
2023/11/20 03:52:46;;;;;;;2.43;1.40;;;;;;;;;;5068445;28;20036;-57
2023/11/20 03:55:15;;;;;;;0.93;0.80;;;;;;;;;;5066807;28;20120;-57
2023/11/20 03:57:48;;;;;;;1.57;1.00;;;;;;;;;;5066579;28;20111;-57
2023/11/20 04:00:15;;;;;;;0.80;0.70;;;;;;;;;;5066923;28;20028;-57
2023/11/20 04:02:41;;;;;;;1.83;0.93;;;;;;;;;;5069361;28;20056;-57
2023/11/20 04:05:09;;;;;;;0.50;0.50;;;;;;;;;;5072148;28;20099;-57
2023/11/20 04:07:36;;;;;;;1.40;0.70;;;;;;;;;;5071841;28;20410;-57
2023/11/20 04:10:04;;;;;;;2.13;0.70;;;;;;;;;;5071759;28;20031;-57
2023/11/20 04:12:31;;;;;;;3.90;1.70;;;;;;;;;;5071621;28;20391;-57
2023/11/20 04:14:58;;;;;;;0.97;0.70;;;;;;;;;;5068899;28;20029;-57
2023/11/20 04:17:25;;;;;;;1.27;0.83;;;;;;;;;;5066465;28;20028;-56
2023/11/20 04:19:52;;;;;;;1.33;0.90;;;;;;;;;;5049001;28;20475;-57
2023/11/20 04:22:18;;;;;;;1.13;0.83;;;;;;;;;;5066736;28;20090;-57
2023/11/20 04:24:45;;;;;;;2.70;1.33;;;;;;;;;;5069208;28;20024;-57
2023/11/20 04:27:12;;;;;;;3.17;1.57;;;;;;;;;;5075140;28;20482;-57
2023/11/20 04:29:39;;;;;;;2.93;1.43;;;;;;;;;;5075828;28;20387;-57
2023/11/20 04:32:06;;;;;;;2.43;0.97;;;;;;;;;;5075641;28;20035;-57
2023/11/20 04:34:32;;;;;;;2.57;1.13;;;;;;;;;;5075628;28;20029;-57
2023/11/20 04:36:59;;;;;;;2.27;1.30;;;;;;;;;;5073477;28;20017;-57
2023/11/20 04:39:26;;;;;;;2.73;1.40;;;;;;;;;;5070724;28;20029;-56
2023/11/20 04:41:53;;;;;;;2.37;0.90;;;;;;;;;;5070439;28;20028;-57
2023/11/20 04:44:19;;;;;;;1.87;1.00;;;;;;;;;;5070627;28;20052;-57
2023/11/20 04:46:46;;;;;;;2.37;1.30;;;;;;;;;;5071531;28;20024;-57
2023/11/20 04:49:13;;;;;;;3.13;1.03;;;;;;;;;;5075403;28;20033;-57
2023/11/20 04:51:39;;;;;;;1.63;1.03;;;;;;;;;;5075409;28;20103;-57
2023/11/20 04:54:06;;;;;;;2.63;1.80;;;;;;;;;;5075336;28;20040;-57
2023/11/20 04:56:33;;;;;;;2.20;1.43;;;;;;;;;;5075006;28;20548;-57
2023/11/20 04:59:00;;;;;;;2.70;1.60;;;;;;;;;;5074172;28;20012;-57
2023/11/20 05:01:27;;;;;;;2.43;1.60;;;;;;;;;;5069995;28;20040;-56
2023/11/20 05:03:54;;;;;;;4.20;2.40;;;;;;;;;;5069690;28;20108;-57
2023/11/20 05:06:20;;;;;;;7.63;2.20;;;;;;;;;;5069742;28;20098;-57
2023/11/20 05:08:49;;;;;;;3.07;1.87;;;;;;;;;;5069905;28;20071;-58
2023/11/20 05:11:16;;;;;;;6.77;2.17;;;;;;;;;;5074937;28;20052;-57
2023/11/20 05:13:45;;;;;;;1.93;1.13;;;;;;;;;;5075103;28;20020;-57
2023/11/20 05:16:12;;;;;;;2.27;1.03;;;;;;;;;;5075052;28;20374;-56
2023/11/20 05:18:38;;;;;;;1.93;1.40;;;;;;;;;;5075153;28;20017;-56
2023/11/20 05:21:06;;;;;;;16.33;1.70;;;;;;;;;;5073817;28;20027;-57
2023/11/20 05:23:33;;;;;;;2.47;1.80;;;;;;;;;;5069484;28;20032;-57
2023/11/20 05:26:00;;;;;;;4.37;1.90;;;;;;;;;;5069632;28;20036;-56
2023/11/20 05:28:27;;;;;;;9.20;1.07;;;;;;;;;;5069372;28;20127;-57
2023/11/20 05:30:53;;;;;;;3.17;1.50;;;;;;;;;;5069199;28;20102;-56
2023/11/20 05:33:22;;;;;;;1.53;1.10;;;;;;;;;;5062271;28;20033;-56
2023/11/20 05:35:49;;;;;;;2.13;1.07;;;;;;;;;;5054239;28;20079;-56
2023/11/20 05:38:15;;;;;;;1.90;1.17;;;;;;;;;;5054680;28;20047;-56
2023/11/20 05:40:42;;;;;;;3.67;1.03;;;;;;;;;;5054361;28;20036;-56
2023/11/20 05:43:09;;;;;;;1.63;1.10;;;;;;;;;;5054211;28;20152;-56
2023/11/20 05:45:36;;;;;;;1.73;1.03;;;;;;;;;;5049792;28;20168;-56
2023/11/20 05:48:02;;;;;;;0.47;0.47;;;;;;;;;;5062372;28;20037;-56
2023/11/20 05:50:29;;;;;;;2.10;1.43;;;;;;;;;;5069278;28;20032;-56
2023/11/20 05:52:56;;;;;;;2.43;1.00;;;;;;;;;;5069049;28;20025;-57
2023/11/20 05:55:26;;;;;;;1.93;1.20;;;;;;;;;;5073021;28;20032;-56
2023/11/20 05:57:52;;;;;;;1.50;0.90;;;;;;;;;;5073503;28;20082;-56
2023/11/20 06:00:20;;;;;;;3.60;1.37;;;;;;;;;;5073887;28;20100;-57
2023/11/20 06:02:46;;;;;;;0.43;0.43;;;;;;;;;;5074206;28;20086;-56
2023/11/20 06:05:13;;;;;;;4.67;2.13;;;;;;;;;;5074274;28;20082;-56
2023/11/20 06:07:40;;;;;;;1.73;1.10;;;;;;;;;;5066838;28;20063;-56
2023/11/20 06:10:07;;;;;;;1.70;1.20;;;;;;;;;;5048705;28;20108;-56
2023/11/20 06:12:34;;;;;;;1.47;1.10;;;;;;;;;;5048587;28;20044;-56
2023/11/20 06:15:01;;;;;;;1.60;1.00;;;;;;;;;;5051726;28;20017;-56
2023/11/20 06:17:27;;;;;;;2.23;1.17;;;;;;;;;;5071595;28;20111;-56
2023/11/20 06:19:54;;;;;;;1.27;0.73;;;;;;;;;;5073891;28;20020;-56
2023/11/20 06:22:21;;;;;;;1.47;0.97;;;;;;;;;;5072380;28;20548;-56
2023/11/20 06:24:48;;;;;;;1.07;0.73;;;;;;;;;;5073573;28;20016;-56
2023/11/20 06:27:14;;;;;;;1.20;0.70;;;;;;;;;;5068037;28;20082;-56
2023/11/20 06:29:41;;;;;;;0.97;0.70;;;;;;;;;;5058102;28;20367;-56
2023/11/20 06:32:08;;;;;;;0.97;0.80;;;;;;;;;;5048641;28;20029;-56
2023/11/20 06:34:35;;;;;;;0.50;0.50;;;;;;;;;;5066918;28;20024;-56
2023/11/20 06:37:02;;;;;;;2.00;1.00;;;;;;;;;;5065395;28;20032;-56
2023/11/20 06:39:28;;;;;;;1.33;0.73;;;;;;;;;;5070922;28;20349;-56
2023/11/20 06:41:55;;;;;;;4.07;1.03;;;;;;;;;;5073437;28;20523;-56
2023/11/20 06:44:22;;;;;;;1.17;0.83;;;;;;;;;;5072912;28;20069;-56
2023/11/20 06:46:52;;;;;;;4.97;1.30;;;;;;;;;;5073154;28;20036;-56
2023/11/20 06:49:21;;;;;;;1.80;1.40;;;;;;;;;;5071980;28;20066;-57
2023/11/20 06:51:48;;;;;;;2.27;1.00;;;;;;;;;;5050420;28;20060;-56
2023/11/20 06:54:15;;;;;;;1.70;1.03;;;;;;;;;;5047976;28;20036;-56
2023/11/20 06:56:42;;;;;;;1.63;1.13;;;;;;;;;;5047239;28;20029;-57
2023/11/20 06:59:08;;;;;;;1.00;0.70;;;;;;;;;;5066186;28;20112;-56
2023/11/20 07:01:35;;;;;;;1.63;0.90;;;;;;;;;;5068984;28;20474;-56
2023/11/20 07:04:02;;;;;;;1.10;0.87;;;;;;;;;;5068947;28;20033;-56
2023/11/20 07:06:29;;;;;;;1.57;1.10;;;;;;;;;;5070214;28;20078;-56
2023/11/20 07:08:55;;;;;;;1.83;1.13;;;;;;;;;;5071977;28;20479;-55
2023/11/20 07:11:22;;;;;;;3.23;1.00;;;;;;;;;;5071678;28;20031;-56
2023/11/20 07:13:49;;;;;;;1.13;0.93;;;;;;;;;;5070308;28;20043;-56
2023/11/20 07:16:16;;;;;;;1.33;0.97;;;;;;;;;;5067126;28;20033;-56
2023/11/20 07:18:42;;;;;;;2.17;1.30;;;;;;;;;;5059536;28;20025;-56
2023/11/20 07:21:09;;;;;;;0.90;0.63;;;;;;;;;;5046979;28;20052;-56
2023/11/20 07:23:36;;;;;;;2.73;1.53;;;;;;;;;;5066285;28;20029;-56
2023/11/20 07:26:03;;;;;;;1.30;1.10;;;;;;;;;;5071778;28;20021;-56
2023/11/20 07:28:30;;;;;;;1.50;1.00;;;;;;;;;;5071213;28;20036;-56
2023/11/20 07:30:56;;;;;;;2.00;1.50;;;;;;;;;;5071653;28;20025;-56
2023/11/20 07:33:23;;;;;;;1.63;1.23;;;;;;;;;;5064559;28;20094;-56
2023/11/20 07:35:51;;;;;;;2.17;1.10;;;;;;;;;;5050920;28;20021;-56
2023/11/20 07:38:18;;;;;;;1.27;0.93;;;;;;;;;;5059016;28;20487;-56
2023/11/20 07:40:45;;;;;;;2.83;1.30;;;;;;;;;;5066636;28;20078;-57
2023/11/20 07:43:12;;;;;;;2.07;0.90;;;;;;;;;;5066269;28;20033;-56
2023/11/20 07:45:38;;;;;;;2.20;1.23;;;;;;;;;;5066409;28;20597;-57
2023/11/20 07:48:07;;;;;;;2.70;1.20;;;;;;;;;;5061069;28;20049;-57
2023/11/20 07:50:34;;;;;;;6.10;1.50;;;;;;;;;;5051472;28;20024;-56
2023/11/20 07:53:04;;;;;;;1.38;1.14;;;;;;;;;;5032092;28;1971308;-59
2023/11/20 07:55:31;;;;;;;22.43;1.23;;;;;;;;;;5051967;28;20468;-56
2023/11/20 07:57:58;;;;;;;2.77;1.07;;;;;;;;;;5051702;28;20369;-56
2023/11/20 08:00:24;;;;;;;1.23;0.87;;;;;;;;;;5046692;28;20048;-56
2023/11/20 08:02:51;;;;;;;13.77;1.73;;;;;;;;;;5046607;28;20075;-56
2023/11/20 08:05:19;;;;;;;1.77;1.20;;;;;;;;;;5046784;28;20451;-56
2023/11/20 08:07:46;;;;;;;2.17;1.13;;;;;;;;;;5046663;28;20045;-56
2023/11/20 08:10:12;;;;;;;3.40;1.47;;;;;;;;;;5051391;28;20431;-56
2023/11/20 08:12:39;;;;;;;1.87;0.87;;;;;;;;;;5056221;28;20024;-56
2023/11/20 08:15:06;;;;;;;3.00;1.00;;;;;;;;;;5071851;28;20032;-56
2023/11/20 08:17:33;;;;;;;1.53;1.10;;;;;;;;;;5071621;28;20016;-56
2023/11/20 08:20:00;;;;;;;1.97;1.20;;;;;;;;;;5071612;28;20475;-57
2023/11/20 08:22:27;;;;;;;1.33;1.00;;;;;;;;;;5067177;28;21115;-56
2023/11/20 08:24:53;;;;;;;1.10;0.93;;;;;;;;;;5066826;28;20547;-57
2023/11/20 08:27:20;;;;;;;2.47;1.33;;;;;;;;;;5066576;28;20037;-56
2023/11/20 08:29:47;;;;;;;1.77;1.23;;;;;;;;;;5066680;28;20047;-56
2023/11/20 08:32:13;;;;;;;1.60;1.30;;;;;;;;;;5070319;28;20037;-56
2023/11/20 08:34:40;;;;;;;3.03;1.60;;;;;;;;;;5071576;28;20078;-56
2023/11/20 08:37:07;;;;;;;1.93;1.07;;;;;;;;;;5071824;28;20494;-56
2023/11/20 08:39:35;;;;;;;1.00;0.90;;;;;;;;;;5071206;28;20033;-56
2023/11/20 08:42:03;;;;;;;1.20;1.00;;;;;;;;;;5071473;28;20029;-56
2023/11/20 08:44:29;;;;;;;2.00;1.20;;;;;;;;;;5067615;28;20072;-56
2023/11/20 08:46:56;;;;;;;1.90;1.33;;;;;;;;;;5066528;28;20492;-56
2023/11/20 08:49:23;;;;;;;3.43;1.40;;;;;;;;;;5066648;28;20163;-56
2023/11/20 08:51:50;;;;;;;1.37;1.03;;;;;;;;;;5066257;28;20078;-56
2023/11/20 08:54:16;;;;;;;2.13;1.40;;;;;;;;;;5069429;28;20033;-56
2023/11/20 08:56:45;;;;;;;1.20;1.10;;;;;;;;;;5070943;28;20364;-56
2023/11/20 08:59:11;;;;;;;1.83;1.30;;;;;;;;;;5071269;28;20029;-56
2023/11/20 09:01:39;;;;;;;1.70;1.17;;;;;;;;;;5071401;28;20017;-56
2023/11/20 09:04:06;;;;;;;1.83;1.10;;;;;;;;;;5071479;28;20115;-56
2023/11/20 09:06:33;;;;;;;1.73;1.00;;;;;;;;;;5068221;28;20094;-56
2023/11/20 09:09:00;;;;;;;1.77;1.13;;;;;;;;;;5065849;28;20047;-56
2023/11/20 09:11:29;;;;;;;3.40;1.80;;;;;;;;;;5067738;28;20056;-56
2023/11/20 09:13:55;;;;;;;14.70;2.17;;;;;;;;;;5069462;28;20043;-56
2023/11/20 09:16:22;;;;;;;1.33;1.17;;;;;;;;;;5072436;28;20032;-56
2023/11/20 09:18:49;;;;;;;2.43;1.53;;;;;;;;;;5074833;28;20063;-56
2023/11/20 09:21:16;;;;;;;1.90;1.53;;;;;;;;;;5074975;28;20066;-56
2023/11/20 09:23:46;;;;;;;1.57;1.27;;;;;;;;;;5074555;28;20129;-56
2023/11/20 09:26:14;;;;;;;2.40;1.53;;;;;;;;;;5074561;28;20046;-56
2023/11/20 09:28:42;;;;;;;5.33;1.53;;;;;;;;;;5072034;28;20372;-56
2023/11/20 09:31:17;;;;;;;2.53;1.50;;;;;;;;;;5069381;28;20355;-56
2023/11/20 09:33:44;;;;;;;4.43;2.17;;;;;;;;;;5069439;28;20058;-56
2023/11/20 09:36:11;;;;;;;1.53;1.13;;;;;;;;;;5069906;28;20026;-55
2023/11/20 09:38:37;;;;;;;1.77;1.40;;;;;;;;;;5071790;28;20028;-55
2023/11/20 09:41:04;;;;;;;1.90;1.43;;;;;;;;;;5074393;28;20021;-56
2023/11/20 09:43:33;;;;;;;2.33;1.63;;;;;;;;;;5074483;28;20375;-55
2023/11/20 09:46:00;;;;;;;3.97;1.80;;;;;;;;;;5073486;28;20086;-56
2023/11/20 09:48:31;;;;;;;3.47;1.90;;;;;;;;;;5074463;28;20039;-56
2023/11/20 09:50:58;;;;;;;2.70;1.73;;;;;;;;;;5071822;28;20029;-56
2023/11/20 09:53:27;;;;;;;2.47;1.40;;;;;;;;;;5069220;28;20029;-56
2023/11/20 09:55:54;;;;;;;3.73;1.50;;;;;;;;;;5069375;28;20036;-56
2023/11/20 09:58:20;;;;;;;2.67;1.77;;;;;;;;;;5069236;28;20104;-56
2023/11/20 10:00:47;;;;;;;2.07;1.20;;;;;;;;;;5070616;28;20391;-55
2023/11/20 10:15:07;;;;;;;2.57;1.50;;;;;;;;;;5148705;27;20355;-54
2023/11/20 10:17:42;;;;;;;1.27;1.07;;;;;;;;;;5144314;27;20388;-54
2023/11/20 10:20:09;;;;;;;5.47;1.67;;;;;;;;;;5143841;27;20083;-53
2023/11/20 10:22:36;;;;;;;3.63;2.00;;;;;;;;;;5063800;27;2115682;-54
2023/11/20 10:25:08;;;;;;;1.73;1.40;;;;;;;;;;5125000;28;20023;-54
2023/11/20 10:27:35;;;;;;;2.10;1.60;;;;;;;;;;5130192;28;20016;-54
2023/11/20 10:30:03;;;;;;;2.50;1.53;;;;;;;;;;5129943;28;20019;-54
2023/11/20 10:32:32;;;;;;;1.67;1.23;;;;;;;;;;5130048;28;20145;-54
2023/11/20 10:35:14;;;;;;;3.23;1.80;;;;;;;;;;5129547;28;20046;-54
2023/11/20 10:38:03;;;;;;;1.97;1.50;;;;;;;;;;5128606;28;20027;-54
2023/11/20 10:40:30;;;;;;;3.40;1.33;;;;;;;;;;5124759;28;20027;-54
2023/11/20 10:43:00;;;;;;;3.13;1.80;;;;;;;;;;5124522;28;20144;-54
2023/11/20 10:45:27;;;;;;;2.93;1.80;;;;;;;;;;5124542;28;20030;-54
2023/11/20 10:47:54;;;;;;;2.47;1.77;;;;;;;;;;5125747;28;20362;-54
2023/11/20 10:50:22;;;;;;;2.13;1.60;;;;;;;;;;5129651;28;20407;-54
2023/11/20 10:52:49;;;;;;;2.63;1.70;;;;;;;;;;5129589;28;20019;-54
2023/11/20 10:55:17;;;;;;;2.90;2.03;;;;;;;;;;5129246;28;20060;-54
2023/11/20 10:57:44;;;;;;;4.80;1.83;;;;;;;;;;5129538;28;20479;-54
2023/11/20 11:00:14;;;;;;;2.77;1.70;;;;;;;;;;5127571;28;20068;-54
2023/11/20 11:02:45;;;;;;;3.63;1.77;;;;;;;;;;5124034;28;20089;-55
2023/11/20 11:05:16;;;;;;;4.17;2.27;;;;;;;;;;5124185;28;20385;-54
2023/11/20 11:07:44;;;;;;;4.30;2.30;;;;;;;;;;5124112;28;20354;-54
2023/11/20 11:10:11;;;;;;;7.00;2.93;;;;;;;;;;5125285;28;20531;-54
2023/11/20 11:12:46;;;;;;;6.40;2.87;;;;;;;;;;5129135;28;20081;-53
2023/11/20 11:15:13;;;;;;;2.83;1.90;;;;;;;;;;5120071;28;20016;-53
2023/11/20 11:17:47;;;;;;;2.90;2.07;;;;;;;;;;5115561;28;20035;-54
2023/11/20 11:20:15;;;;;;;3.67;2.33;;;;;;;;;;5115418;28;20019;-53
2023/11/20 11:22:44;;;;;;;5.47;2.63;;;;;;;;;;5113133;28;20525;-54
2023/11/20 11:25:12;;;;;;;4.73;2.03;;;;;;;;;;5109922;28;20031;-53
2023/11/20 11:27:42;;;;;;;2.57;1.77;;;;;;;;;;5109642;28;20043;-54
2023/11/20 11:30:10;;;;;;;5.60;2.30;;;;;;;;;;5109869;28;20052;-53
2023/11/20 11:32:37;;;;;;;2.83;2.00;;;;;;;;;;5111119;28;20020;-54
2023/11/20 11:35:10;;;;;;;4.03;2.53;;;;;;;;;;5115345;28;20027;-54
2023/11/20 11:37:55;;;;;;;4.33;2.07;;;;;;;;;;5114840;28;20482;-54
2023/11/20 11:40:42;;;;;;;7.45;2.53;;;;;;;;;;5115122;28;20055;-54
2023/11/20 11:43:14;;;;;;;2.43;1.93;;;;;;;;;;5114988;28;20363;-54
2023/11/20 11:45:44;;;;;;;4.17;1.93;;;;;;;;;;5111770;28;20073;-54
2023/11/20 11:48:11;;;;;;;3.10;2.20;;;;;;;;;;5109458;28;20024;-54
2023/11/20 11:50:39;;;;;;;2.20;1.77;;;;;;;;;;5109550;28;20466;-53
2023/11/20 11:53:10;;;;;;;3.43;2.20;;;;;;;;;;5109421;28;20439;-55
2023/11/20 11:55:40;;;;;;;4.70;2.70;;;;;;;;;;5112304;28;20024;-55
2023/11/20 11:58:13;;;;;;;3.87;2.17;;;;;;;;;;5114800;28;20027;-53
2023/11/20 12:00:40;;;;;;;4.17;2.60;;;;;;;;;;5114656;28;20020;-54
2023/11/20 12:03:11;;;;;;;4.77;2.53;;;;;;;;;;5113942;28;20032;-54
2023/11/20 12:05:57;;;;;;;6.97;2.10;;;;;;;;;;5114440;28;20032;-53
2023/11/20 12:08:24;;;;;;;10.47;4.00;;;;;;;;;;5110498;28;20057;-54
2023/11/20 12:10:52;;;;;;;4.90;3.07;;;;;;;;;;5088542;28;20470;-54
2023/11/20 12:13:20;;;;;;;4.10;2.20;;;;;;;;;;5088982;28;20067;-54
2023/11/20 12:15:48;;;;;;;6.07;3.30;;;;;;;;;;5088542;28;20036;-53
2023/11/20 12:18:16;;;;;;;6.40;4.23;;;;;;;;;;5091886;28;20505;-53
2023/11/20 12:20:52;;;;;;;5.73;3.20;;;;;;;;;;5093748;28;20020;-53
2023/11/20 12:23:27;;;;;;;4.87;3.87;;;;;;;;;;5092962;28;20032;-53
2023/11/20 12:25:54;;;;;;;15.57;3.87;;;;;;;;;;5092994;28;20097;-53
2023/11/20 12:28:22;;;;;;;4.47;3.33;;;;;;;;;;5093183;28;20035;-53
2023/11/20 12:30:49;;;;;;;4.13;2.97;;;;;;;;;;5089773;28;20032;-53
2023/11/20 12:33:15;;;;;;;5.37;3.23;;;;;;;;;;5088582;28;20028;-54
2023/11/20 12:35:42;;;;;;;5.40;2.97;;;;;;;;;;5088559;28;20378;-53
2023/11/20 12:38:12;;;;;;;3.60;2.63;;;;;;;;;;5088549;28;20020;-53
2023/11/20 12:40:38;;;;;;;5.53;3.00;;;;;;;;;;5091817;28;20039;-54
2023/11/20 12:43:05;;;;;;;3.90;3.07;;;;;;;;;;5093440;28;20081;-53
2023/11/20 12:45:32;;;;;;;6.03;2.83;;;;;;;;;;5093395;28;20095;-53
2023/11/20 12:47:58;;;;;;;5.90;3.47;;;;;;;;;;5093431;28;20572;-53
2023/11/20 12:50:25;;;;;;;13.90;3.87;;;;;;;;;;5093276;28;20028;-54
2023/11/20 12:52:53;;;;;;;24.00;3.30;;;;;;;;;;5089994;28;20471;-54
2023/11/20 12:55:21;;;;;;;5.30;3.87;;;;;;;;;;5088147;28;20024;-53
2023/11/20 12:57:48;;;;;;;5.43;3.83;;;;;;;;;;5088051;28;20481;-54
2023/11/20 13:00:16;;;;;;;11.53;4.17;;;;;;;;;;5088116;28;20024;-54
2023/11/20 13:02:57;;;;;;;10.00;4.23;;;;;;;;;;5090465;28;20085;-54
2023/11/20 13:05:24;;;;;;;17.43;4.53;;;;;;;;;;5072990;28;20040;-53
2023/11/20 13:08:08;;;;;;;21.40;4.23;;;;;;;;;;5072809;28;20137;-53
2023/11/20 13:10:35;;;;;;;10.17;3.40;;;;;;;;;;5072405;28;20528;-53
2023/11/20 13:13:11;;;;;;;5.83;4.27;;;;;;;;;;5079659;28;20027;-53
2023/11/20 13:15:37;;;;;;;6.90;4.90;;;;;;;;;;5088670;28;20058;-53
2023/11/20 13:18:07;;;;;;;4.93;3.70;;;;;;;;;;5087875;28;20050;-54
2023/11/20 13:20:47;;;;;;;18.13;4.67;;;;;;;;;;5087935;28;20498;-54
2023/11/20 13:23:17;;;;;;;5.73;4.33;;;;;;;;;;5087642;28;20487;-53
2023/11/20 13:25:45;;;;;;;9.03;5.10;;;;;;;;;;5091816;28;20024;-54
2023/11/20 13:28:13;;;;;;;7.77;4.67;;;;;;;;;;5092806;28;20114;-53
2023/11/20 13:31:16;;;;;;;8.80;4.73;;;;;;;;;;5091463;28;20039;-54
2023/11/20 13:33:46;;;;;;;7.40;5.40;;;;;;;;;;5091774;28;20031;-54
2023/11/20 13:36:13;;;;;;;21.73;6.17;;;;;;;;;;5091147;28;20036;-54
2023/11/20 13:38:40;;;;;;;5.70;4.30;;;;;;;;;;5087040;28;20035;-53
2023/11/20 13:41:10;;;;;;;15.43;5.20;;;;;;;;;;5087636;28;20032;-54
2023/11/20 13:43:40;;;;;;;9.20;3.97;;;;;;;;;;5087111;28;20051;-55
2023/11/20 13:46:07;;;;;;;6.17;4.93;;;;;;;;;;5087320;28;20035;-54
2023/11/20 13:48:33;;;;;;;9.83;6.30;;;;;;;;;;5092229;28;20032;-54
2023/11/20 13:51:02;;;;;;;24.23;6.13;;;;;;;;;;5092078;28;20024;-54
2023/11/20 13:53:29;;;;;;;10.10;6.07;;;;;;;;;;5092223;28;20101;-56
2023/11/20 13:55:57;;;;;;;7.93;5.20;;;;;;;;;;5092476;28;20022;-54
2023/11/20 13:58:25;;;;;;;11.67;5.67;;;;;;;;;;5091881;28;20050;-54
2023/11/20 14:00:55;;;;;;;6.33;4.17;;;;;;;;;;5086700;28;20047;-55
2023/11/20 14:03:22;;;;;;;7.83;5.93;;;;;;;;;;5086369;28;20033;-55
2023/11/20 14:05:49;;;;;;;10.67;5.93;;;;;;;;;;5087266;28;20024;-55
2023/11/20 14:08:16;;;;;;;22.27;12.77;;;;;;;;;;5087030;28;20102;-55
2023/11/20 14:11:03;;;;;;;26.77;10.67;;;;;;;;;;5091182;28;20481;-54
2023/11/20 14:13:29;;;;;;;8.13;6.27;;;;;;;;;;5091790;28;20020;-55
2023/11/20 14:15:57;;;;;;;14.27;7.10;;;;;;;;;;5092132;28;20028;-55
2023/11/20 14:18:27;;;;;;;8.80;5.30;;;;;;;;;;5091505;28;20032;-54
2023/11/20 14:20:55;;;;;;;8.50;5.93;;;;;;;;;;5091144;28;20028;-54
2023/11/20 14:23:22;;;;;;;11.67;7.13;;;;;;;;;;5085590;28;20044;-55
2023/11/20 14:25:48;;;;;;;19.73;5.63;;;;;;;;;;5087138;28;20034;-55
2023/11/20 14:28:15;;;;;;;11.63;6.03;;;;;;;;;;5087335;28;20024;-55
2023/11/20 14:30:42;;;;;;;12.40;7.10;;;;;;;;;;5086583;28;20631;-55
2023/11/20 14:33:12;;;;;;;11.20;7.20;;;;;;;;;;5091775;28;20466;-55
2023/11/20 14:35:38;;;;;;;7.10;4.90;;;;;;;;;;5091947;28;20056;-55
2023/11/20 14:38:05;;;;;;;8.03;5.10;;;;;;;;;;5090884;28;20371;-55
2023/11/20 14:40:32;;;;;;;12.63;6.13;;;;;;;;;;5089215;28;20066;-55
2023/11/20 14:42:59;;;;;;;9.53;5.73;;;;;;;;;;5089714;28;20024;-55
2023/11/20 14:45:25;;;;;;;9.83;5.37;;;;;;;;;;5085459;28;20430;-55
2023/11/20 14:47:52;;;;;;;7.03;4.23;;;;;;;;;;5085434;28;20109;-55
2023/11/20 14:50:19;;;;;;;7.13;4.13;;;;;;;;;;5087155;28;20196;-56
2023/11/20 14:52:49;;;;;;;8.17;4.63;;;;;;;;;;5089136;28;20047;-55
2023/11/20 14:55:15;;;;;;;6.43;4.67;;;;;;;;;;5094196;28;20055;-56
2023/11/20 14:57:43;;;;;;;8.43;4.47;;;;;;;;;;5094661;28;20027;-55